sensor_id;sensor_type;location;lat;lon;timestamp;P1;durP1;ratioP1;P2;durP2;ratioP2
19260;SDS011;9764;48.114;11.670;2023-02-12T00:01:41;2.70;;;2.45;;
19260;SDS011;9764;48.114;11.670;2023-02-12T00:04:09;3.05;;;2.25;;
19260;SDS011;9764;48.114;11.670;2023-02-12T00:06:37;3.05;;;2.40;;
19260;SDS011;9764;48.114;11.670;2023-02-12T00:09:06;2.22;;;1.90;;
19260;SDS011;9764;48.114;11.670;2023-02-12T00:11:34;2.45;;;2.25;;
19260;SDS011;9764;48.114;11.670;2023-02-12T00:14:03;2.58;;;2.35;;
19260;SDS011;9764;48.114;11.670;2023-02-12T00:16:32;2.63;;;2.28;;
19260;SDS011;9764;48.114;11.670;2023-02-12T00:19:02;2.00;;;1.73;;
19260;SDS011;9764;48.114;11.670;2023-02-12T00:21:30;2.75;;;2.35;;
19260;SDS011;9764;48.114;11.670;2023-02-12T00:23:59;3.22;;;2.10;;
19260;SDS011;9764;48.114;11.670;2023-02-12T00:26:27;2.28;;;2.03;;
19260;SDS011;9764;48.114;11.670;2023-02-12T00:28:57;2.53;;;2.20;;
19260;SDS011;9764;48.114;11.670;2023-02-12T00:31:26;2.47;;;2.25;;
19260;SDS011;9764;48.114;11.670;2023-02-12T00:33:58;2.65;;;2.40;;
19260;SDS011;9764;48.114;11.670;2023-02-12T00:39:25;2.10;;;2.00;;
19260;SDS011;9764;48.114;11.670;2023-02-12T00:41:54;2.50;;;2.30;;
19260;SDS011;9764;48.114;11.670;2023-02-12T00:44:22;2.30;;;1.90;;
19260;SDS011;9764;48.114;11.670;2023-02-12T00:46:50;2.03;;;1.85;;
19260;SDS011;9764;48.114;11.670;2023-02-12T00:49:20;2.50;;;2.30;;
19260;SDS011;9764;48.114;11.670;2023-02-12T00:51:49;2.88;;;2.38;;
19260;SDS011;9764;48.114;11.670;2023-02-12T00:54:17;2.22;;;2.03;;
19260;SDS011;9764;48.114;11.670;2023-02-12T00:56:46;2.35;;;1.98;;
19260;SDS011;9764;48.114;11.670;2023-02-12T00:59:15;2.80;;;2.20;;
19260;SDS011;9764;48.114;11.670;2023-02-12T01:01:43;2.40;;;2.20;;
19260;SDS011;9764;48.114;11.670;2023-02-12T01:04:11;2.13;;;1.92;;
19260;SDS011;9764;48.114;11.670;2023-02-12T01:06:41;2.58;;;2.25;;
19260;SDS011;9764;48.114;11.670;2023-02-12T01:09:09;2.97;;;2.60;;
19260;SDS011;9764;48.114;11.670;2023-02-12T01:11:37;2.95;;;2.35;;
19260;SDS011;9764;48.114;11.670;2023-02-12T01:14:06;2.83;;;2.30;;
19260;SDS011;9764;48.114;11.670;2023-02-12T01:16:35;2.33;;;1.90;;
19260;SDS011;9764;48.114;11.670;2023-02-12T01:19:04;2.58;;;2.35;;
19260;SDS011;9764;48.114;11.670;2023-02-12T01:21:33;2.42;;;2.22;;
19260;SDS011;9764;48.114;11.670;2023-02-12T01:24:03;2.60;;;2.22;;
19260;SDS011;9764;48.114;11.670;2023-02-12T01:26:32;2.70;;;2.50;;
19260;SDS011;9764;48.114;11.670;2023-02-12T01:29:01;2.67;;;2.30;;
19260;SDS011;9764;48.114;11.670;2023-02-12T01:31:34;2.88;;;2.47;;
19260;SDS011;9764;48.114;11.670;2023-02-12T01:34:04;2.28;;;2.13;;
19260;SDS011;9764;48.114;11.670;2023-02-12T01:36:34;2.72;;;2.47;;
19260;SDS011;9764;48.114;11.670;2023-02-12T01:39:04;3.13;;;2.40;;
19260;SDS011;9764;48.114;11.670;2023-02-12T01:41:33;2.55;;;2.35;;
19260;SDS011;9764;48.114;11.670;2023-02-12T01:44:11;2.35;;;2.15;;
19260;SDS011;9764;48.114;11.670;2023-02-12T01:46:42;3.97;;;2.60;;
19260;SDS011;9764;48.114;11.670;2023-02-12T01:49:13;1.80;;;1.70;;
19260;SDS011;9764;48.114;11.670;2023-02-12T01:51:46;2.63;;;2.42;;
19260;SDS011;9764;48.114;11.670;2023-02-12T01:54:21;2.45;;;2.22;;
19260;SDS011;9764;48.114;11.670;2023-02-12T01:56:52;2.88;;;2.50;;
19260;SDS011;9764;48.114;11.670;2023-02-12T01:59:21;4.00;;;2.65;;
19260;SDS011;9764;48.114;11.670;2023-02-12T02:01:51;3.08;;;2.30;;
19260;SDS011;9764;48.114;11.670;2023-02-12T02:04:22;2.33;;;2.10;;
19260;SDS011;9764;48.114;11.670;2023-02-12T02:06:55;2.60;;;2.38;;
19260;SDS011;9764;48.114;11.670;2023-02-12T02:09:26;2.45;;;2.20;;
19260;SDS011;9764;48.114;11.670;2023-02-12T02:11:55;2.75;;;2.25;;
19260;SDS011;9764;48.114;11.670;2023-02-12T02:14:42;2.83;;;2.10;;
19260;SDS011;9764;48.114;11.670;2023-02-12T02:17:19;2.95;;;2.20;;
19260;SDS011;9764;48.114;11.670;2023-02-12T02:20:09;3.83;;;2.38;;
19260;SDS011;9764;48.114;11.670;2023-02-12T02:23:05;2.47;;;2.28;;
19260;SDS011;9764;48.114;11.670;2023-02-12T02:28:57;2.67;;;2.47;;
19260;SDS011;9764;48.114;11.670;2023-02-12T02:31:38;2.50;;;2.30;;
19260;SDS011;9764;48.114;11.670;2023-02-12T02:34:10;2.30;;;2.10;;
19260;SDS011;9764;48.114;11.670;2023-02-12T02:39:47;2.70;;;2.50;;
19260;SDS011;9764;48.114;11.670;2023-02-12T02:42:20;2.83;;;2.53;;
19260;SDS011;9764;48.114;11.670;2023-02-12T02:44:56;2.58;;;2.38;;
19260;SDS011;9764;48.114;11.670;2023-02-12T02:47:30;2.85;;;2.55;;
19260;SDS011;9764;48.114;11.670;2023-02-12T02:50:03;3.40;;;2.75;;
19260;SDS011;9764;48.114;11.670;2023-02-12T02:52:36;2.47;;;2.28;;
19260;SDS011;9764;48.114;11.670;2023-02-12T02:55:10;3.08;;;2.40;;
19260;SDS011;9764;48.114;11.670;2023-02-12T02:57:44;2.58;;;2.38;;
19260;SDS011;9764;48.114;11.670;2023-02-12T03:00:17;2.63;;;2.33;;
19260;SDS011;9764;48.114;11.670;2023-02-12T03:02:52;2.38;;;2.17;;
19260;SDS011;9764;48.114;11.670;2023-02-12T03:05:25;3.10;;;2.25;;
19260;SDS011;9764;48.114;11.670;2023-02-12T03:07:59;2.70;;;2.50;;
19260;SDS011;9764;48.114;11.670;2023-02-12T03:10:33;2.85;;;2.55;;
19260;SDS011;9764;48.114;11.670;2023-02-12T03:13:05;2.45;;;2.25;;
19260;SDS011;9764;48.114;11.670;2023-02-12T03:15:36;3.03;;;2.70;;
19260;SDS011;9764;48.114;11.670;2023-02-12T03:18:38;2.67;;;2.47;;
19260;SDS011;9764;48.114;11.670;2023-02-12T03:21:11;2.85;;;2.53;;
19260;SDS011;9764;48.114;11.670;2023-02-12T03:23:46;2.42;;;2.20;;
19260;SDS011;9764;48.114;11.670;2023-02-12T03:26:21;2.35;;;2.10;;
19260;SDS011;9764;48.114;11.670;2023-02-12T03:28:55;2.85;;;2.45;;
19260;SDS011;9764;48.114;11.670;2023-02-12T03:31:25;3.60;;;2.30;;
19260;SDS011;9764;48.114;11.670;2023-02-12T03:34:06;2.50;;;2.30;;
19260;SDS011;9764;48.114;11.670;2023-02-12T03:36:42;2.92;;;2.60;;
19260;SDS011;9764;48.114;11.670;2023-02-12T03:39:15;3.13;;;2.53;;
19260;SDS011;9764;48.114;11.670;2023-02-12T03:41:53;2.58;;;2.38;;
19260;SDS011;9764;48.114;11.670;2023-02-12T03:44:32;3.35;;;2.53;;
19260;SDS011;9764;48.114;11.670;2023-02-12T03:47:24;2.40;;;2.20;;
19260;SDS011;9764;48.114;11.670;2023-02-12T03:50:01;2.42;;;2.22;;
19260;SDS011;9764;48.114;11.670;2023-02-12T03:52:34;2.60;;;2.40;;
19260;SDS011;9764;48.114;11.670;2023-02-12T03:55:03;2.58;;;2.35;;
19260;SDS011;9764;48.114;11.670;2023-02-12T03:57:38;2.65;;;2.40;;
19260;SDS011;9764;48.114;11.670;2023-02-12T04:00:09;2.92;;;2.58;;
19260;SDS011;9764;48.114;11.670;2023-02-12T04:02:45;3.13;;;2.40;;
19260;SDS011;9764;48.114;11.670;2023-02-12T04:05:17;2.67;;;2.30;;
19260;SDS011;9764;48.114;11.670;2023-02-12T04:07:46;3.08;;;2.40;;
19260;SDS011;9764;48.114;11.670;2023-02-12T04:10:16;2.70;;;2.50;;
19260;SDS011;9764;48.114;11.670;2023-02-12T04:12:50;2.60;;;2.40;;
19260;SDS011;9764;48.114;11.670;2023-02-12T04:15:28;2.95;;;2.47;;
19260;SDS011;9764;48.114;11.670;2023-02-12T04:18:09;3.28;;;2.60;;
19260;SDS011;9764;48.114;11.670;2023-02-12T04:20:46;2.70;;;2.45;;
19260;SDS011;9764;48.114;11.670;2023-02-12T04:23:23;2.67;;;2.28;;
19260;SDS011;9764;48.114;11.670;2023-02-12T04:26:08;2.70;;;2.50;;
19260;SDS011;9764;48.114;11.670;2023-02-12T04:28:42;2.50;;;2.30;;
19260;SDS011;9764;48.114;11.670;2023-02-12T04:31:23;2.28;;;2.08;;
19260;SDS011;9764;48.114;11.670;2023-02-12T04:33:59;2.60;;;2.40;;
19260;SDS011;9764;48.114;11.670;2023-02-12T04:36:34;3.28;;;2.60;;
19260;SDS011;9764;48.114;11.670;2023-02-12T04:39:08;3.00;;;2.50;;
19260;SDS011;9764;48.114;11.670;2023-02-12T04:41:41;7.43;;;2.83;;
19260;SDS011;9764;48.114;11.670;2023-02-12T04:44:16;3.13;;;2.58;;
19260;SDS011;9764;48.114;11.670;2023-02-12T04:46:46;2.63;;;2.40;;
19260;SDS011;9764;48.114;11.670;2023-02-12T04:49:14;3.03;;;2.70;;
19260;SDS011;9764;48.114;11.670;2023-02-12T04:54:42;2.85;;;2.47;;
19260;SDS011;9764;48.114;11.670;2023-02-12T04:57:10;2.78;;;2.25;;
19260;SDS011;9764;48.114;11.670;2023-02-12T04:59:39;3.20;;;2.60;;
19260;SDS011;9764;48.114;11.670;2023-02-12T05:02:07;3.38;;;2.60;;
19260;SDS011;9764;48.114;11.670;2023-02-12T05:04:35;3.65;;;2.70;;
19260;SDS011;9764;48.114;11.670;2023-02-12T05:07:04;3.22;;;2.83;;
19260;SDS011;9764;48.114;11.670;2023-02-12T05:09:33;2.75;;;2.40;;
19260;SDS011;9764;48.114;11.670;2023-02-12T05:12:02;2.90;;;2.67;;
19260;SDS011;9764;48.114;11.670;2023-02-12T05:14:30;3.42;;;2.67;;
19260;SDS011;9764;48.114;11.670;2023-02-12T05:16:58;6.20;;;4.07;;
19260;SDS011;9764;48.114;11.670;2023-02-12T05:19:27;3.13;;;2.55;;
19260;SDS011;9764;48.114;11.670;2023-02-12T05:21:55;2.85;;;2.55;;
19260;SDS011;9764;48.114;11.670;2023-02-12T05:24:23;3.45;;;2.75;;
19260;SDS011;9764;48.114;11.670;2023-02-12T05:26:53;4.07;;;2.60;;
19260;SDS011;9764;48.114;11.670;2023-02-12T05:29:22;3.72;;;2.80;;
19260;SDS011;9764;48.114;11.670;2023-02-12T05:31:50;3.95;;;2.67;;
19260;SDS011;9764;48.114;11.670;2023-02-12T05:34:19;5.15;;;2.63;;
19260;SDS011;9764;48.114;11.670;2023-02-12T05:36:47;3.72;;;2.53;;
19260;SDS011;9764;48.114;11.670;2023-02-12T05:39:15;2.80;;;2.47;;
19260;SDS011;9764;48.114;11.670;2023-02-12T05:41:44;2.63;;;2.42;;
19260;SDS011;9764;48.114;11.670;2023-02-12T05:44:13;3.25;;;2.65;;
19260;SDS011;9764;48.114;11.670;2023-02-12T05:46:42;3.97;;;2.80;;
19260;SDS011;9764;48.114;11.670;2023-02-12T05:49:10;3.70;;;2.53;;
19260;SDS011;9764;48.114;11.670;2023-02-12T05:51:38;2.63;;;2.42;;
19260;SDS011;9764;48.114;11.670;2023-02-12T05:54:07;3.05;;;2.75;;
19260;SDS011;9764;48.114;11.670;2023-02-12T05:56:37;3.20;;;2.80;;
19260;SDS011;9764;48.114;11.670;2023-02-12T05:59:12;2.83;;;2.63;;
19260;SDS011;9764;48.114;11.670;2023-02-12T06:01:43;3.97;;;2.70;;
19260;SDS011;9764;48.114;11.670;2023-02-12T06:04:13;3.50;;;2.80;;
19260;SDS011;9764;48.114;11.670;2023-02-12T06:06:43;3.10;;;2.83;;
19260;SDS011;9764;48.114;11.670;2023-02-12T06:09:13;4.53;;;2.70;;
19260;SDS011;9764;48.114;11.670;2023-02-12T06:11:41;3.70;;;2.53;;
19260;SDS011;9764;48.114;11.670;2023-02-12T06:14:11;4.35;;;2.92;;
19260;SDS011;9764;48.114;11.670;2023-02-12T06:16:43;4.65;;;3.20;;
19260;SDS011;9764;48.114;11.670;2023-02-12T06:19:12;8.95;;;4.03;;
19260;SDS011;9764;48.114;11.670;2023-02-12T06:21:43;10.52;;;4.63;;
19260;SDS011;9764;48.114;11.670;2023-02-12T06:24:12;12.85;;;5.20;;
19260;SDS011;9764;48.114;11.670;2023-02-12T06:26:41;9.10;;;4.43;;
19260;SDS011;9764;48.114;11.670;2023-02-12T06:29:10;13.43;;;5.43;;
19260;SDS011;9764;48.114;11.670;2023-02-12T06:31:41;11.75;;;5.80;;
19260;SDS011;9764;48.114;11.670;2023-02-12T06:34:10;15.38;;;6.28;;
19260;SDS011;9764;48.114;11.670;2023-02-12T06:36:40;15.40;;;5.78;;
19260;SDS011;9764;48.114;11.670;2023-02-12T06:39:11;13.63;;;5.57;;
19260;SDS011;9764;48.114;11.670;2023-02-12T06:41:40;15.73;;;6.43;;
19260;SDS011;9764;48.114;11.670;2023-02-12T06:44:09;17.27;;;6.47;;
19260;SDS011;9764;48.114;11.670;2023-02-12T06:46:40;18.05;;;6.63;;
19260;SDS011;9764;48.114;11.670;2023-02-12T06:49:09;15.70;;;6.63;;
19260;SDS011;9764;48.114;11.670;2023-02-12T06:51:41;12.25;;;6.07;;
19260;SDS011;9764;48.114;11.670;2023-02-12T06:54:11;18.05;;;6.82;;
19260;SDS011;9764;48.114;11.670;2023-02-12T06:56:40;15.70;;;7.28;;
19260;SDS011;9764;48.114;11.670;2023-02-12T06:59:10;12.38;;;6.22;;
19260;SDS011;9764;48.114;11.670;2023-02-12T07:01:42;24.88;;;6.63;;
19260;SDS011;9764;48.114;11.670;2023-02-12T07:04:10;19.02;;;7.03;;
19260;SDS011;9764;48.114;11.670;2023-02-12T07:06:39;16.23;;;6.70;;
19260;SDS011;9764;48.114;11.670;2023-02-12T07:09:08;19.83;;;6.55;;
19260;SDS011;9764;48.114;11.670;2023-02-12T07:11:36;20.02;;;7.07;;
19260;SDS011;9764;48.114;11.670;2023-02-12T07:14:04;18.50;;;6.72;;
19260;SDS011;9764;48.114;11.670;2023-02-12T07:16:33;17.60;;;6.93;;
19260;SDS011;9764;48.114;11.670;2023-02-12T07:19:03;22.33;;;7.35;;
19260;SDS011;9764;48.114;11.670;2023-02-12T07:21:31;21.20;;;7.35;;
19260;SDS011;9764;48.114;11.670;2023-02-12T07:24:00;15.35;;;7.07;;
19260;SDS011;9764;48.114;11.670;2023-02-12T07:26:28;18.73;;;7.63;;
19260;SDS011;9764;48.114;11.670;2023-02-12T07:28:57;16.38;;;6.97;;
19260;SDS011;9764;48.114;11.670;2023-02-12T07:31:25;20.77;;;6.57;;
19260;SDS011;9764;48.114;11.670;2023-02-12T07:33:54;16.33;;;6.78;;
19260;SDS011;9764;48.114;11.670;2023-02-12T07:36:25;12.45;;;5.95;;
19260;SDS011;9764;48.114;11.670;2023-02-12T07:38:55;13.60;;;6.80;;
19260;SDS011;9764;48.114;11.670;2023-02-12T07:41:25;15.27;;;6.40;;
19260;SDS011;9764;48.114;11.670;2023-02-12T07:43:55;18.30;;;6.60;;
19260;SDS011;9764;48.114;11.670;2023-02-12T07:46:25;15.63;;;6.55;;
19260;SDS011;9764;48.114;11.670;2023-02-12T07:48:56;16.38;;;6.65;;
19260;SDS011;9764;48.114;11.670;2023-02-12T07:51:26;14.32;;;6.35;;
19260;SDS011;9764;48.114;11.670;2023-02-12T07:53:55;14.68;;;6.55;;
19260;SDS011;9764;48.114;11.670;2023-02-12T07:56:24;17.88;;;6.43;;
19260;SDS011;9764;48.114;11.670;2023-02-12T07:58:57;15.38;;;5.78;;
19260;SDS011;9764;48.114;11.670;2023-02-12T08:01:27;13.88;;;5.55;;
19260;SDS011;9764;48.114;11.670;2023-02-12T08:03:57;16.73;;;5.68;;
19260;SDS011;9764;48.114;11.670;2023-02-12T08:06:29;12.98;;;5.70;;
19260;SDS011;9764;48.114;11.670;2023-02-12T08:09:00;12.10;;;6.38;;
19260;SDS011;9764;48.114;11.670;2023-02-12T08:11:30;10.60;;;5.85;;
19260;SDS011;9764;48.114;11.670;2023-02-12T08:13:59;12.15;;;5.78;;
19260;SDS011;9764;48.114;11.670;2023-02-12T08:16:28;12.48;;;5.60;;
19260;SDS011;9764;48.114;11.670;2023-02-12T08:18:57;11.98;;;5.65;;
19260;SDS011;9764;48.114;11.670;2023-02-12T08:21:42;8.85;;;5.75;;
19260;SDS011;9764;48.114;11.670;2023-02-12T08:24:12;11.95;;;5.63;;
19260;SDS011;9764;48.114;11.670;2023-02-12T08:26:41;9.68;;;5.40;;
19260;SDS011;9764;48.114;11.670;2023-02-12T08:29:10;10.90;;;5.85;;
19260;SDS011;9764;48.114;11.670;2023-02-12T08:31:41;7.75;;;4.88;;
19260;SDS011;9764;48.114;11.670;2023-02-12T08:34:15;9.90;;;5.05;;
19260;SDS011;9764;48.114;11.670;2023-02-12T08:36:47;11.27;;;5.20;;
19260;SDS011;9764;48.114;11.670;2023-02-12T08:39:16;14.65;;;5.60;;
19260;SDS011;9764;48.114;11.670;2023-02-12T08:41:45;11.05;;;5.50;;
19260;SDS011;9764;48.114;11.670;2023-02-12T08:44:15;9.15;;;5.35;;
19260;SDS011;9764;48.114;11.670;2023-02-12T08:46:44;12.70;;;5.57;;
19260;SDS011;9764;48.114;11.670;2023-02-12T08:49:16;10.65;;;4.80;;
19260;SDS011;9764;48.114;11.670;2023-02-12T08:51:48;9.85;;;5.55;;
19260;SDS011;9764;48.114;11.670;2023-02-12T08:54:18;9.65;;;5.18;;
19260;SDS011;9764;48.114;11.670;2023-02-12T08:56:49;11.80;;;5.28;;
19260;SDS011;9764;48.114;11.670;2023-02-12T08:59:21;9.93;;;5.55;;
19260;SDS011;9764;48.114;11.670;2023-02-12T09:01:49;10.90;;;5.57;;
19260;SDS011;9764;48.114;11.670;2023-02-12T09:04:20;10.85;;;5.00;;
19260;SDS011;9764;48.114;11.670;2023-02-12T09:06:51;7.75;;;5.13;;
19260;SDS011;9764;48.114;11.670;2023-02-12T09:09:20;12.52;;;4.78;;
19260;SDS011;9764;48.114;11.670;2023-02-12T09:11:49;7.70;;;4.75;;
19260;SDS011;9764;48.114;11.670;2023-02-12T09:14:17;9.07;;;4.78;;
19260;SDS011;9764;48.114;11.670;2023-02-12T09:16:49;8.52;;;4.88;;
19260;SDS011;9764;48.114;11.670;2023-02-12T09:22:14;6.80;;;4.38;;
19260;SDS011;9764;48.114;11.670;2023-02-12T09:24:43;6.68;;;4.47;;
19260;SDS011;9764;48.114;11.670;2023-02-12T09:27:11;7.47;;;4.30;;
19260;SDS011;9764;48.114;11.670;2023-02-12T09:29:39;8.18;;;4.95;;
19260;SDS011;9764;48.114;11.670;2023-02-12T09:32:08;7.82;;;4.68;;
19260;SDS011;9764;48.114;11.670;2023-02-12T09:34:36;9.40;;;4.55;;
19260;SDS011;9764;48.114;11.670;2023-02-12T09:37:04;7.97;;;4.30;;
19260;SDS011;9764;48.114;11.670;2023-02-12T09:39:34;6.45;;;4.25;;
19260;SDS011;9764;48.114;11.670;2023-02-12T09:42:09;9.73;;;4.72;;
19260;SDS011;9764;48.114;11.670;2023-02-12T09:44:51;7.13;;;4.53;;
19260;SDS011;9764;48.114;11.670;2023-02-12T09:47:29;10.35;;;4.88;;
19260;SDS011;9764;48.114;11.670;2023-02-12T09:50:05;7.47;;;4.78;;
19260;SDS011;9764;48.114;11.670;2023-02-12T09:52:44;7.13;;;4.35;;
19260;SDS011;9764;48.114;11.670;2023-02-12T09:55:15;9.40;;;4.65;;
19260;SDS011;9764;48.114;11.670;2023-02-12T09:57:45;5.93;;;4.32;;
19260;SDS011;9764;48.114;11.670;2023-02-12T10:00:14;11.32;;;4.90;;
19260;SDS011;9764;48.114;11.670;2023-02-12T10:02:45;7.13;;;4.55;;
19260;SDS011;9764;48.114;11.670;2023-02-12T10:05:17;7.82;;;4.80;;
19260;SDS011;9764;48.114;11.670;2023-02-12T10:10:52;6.03;;;3.85;;
19260;SDS011;9764;48.114;11.670;2023-02-12T10:13:30;6.55;;;4.22;;
19260;SDS011;9764;48.114;11.670;2023-02-12T10:16:09;6.63;;;4.47;;
19260;SDS011;9764;48.114;11.670;2023-02-12T10:18:59;7.13;;;4.28;;
19260;SDS011;9764;48.114;11.670;2023-02-12T10:21:42;6.97;;;3.78;;
19260;SDS011;9764;48.114;11.670;2023-02-12T10:24:25;6.82;;;4.05;;
19260;SDS011;9764;48.114;11.670;2023-02-12T10:27:10;6.60;;;4.18;;
19260;SDS011;9764;48.114;11.670;2023-02-12T10:29:42;7.18;;;4.72;;
19260;SDS011;9764;48.114;11.670;2023-02-12T10:32:20;6.43;;;4.13;;
19260;SDS011;9764;48.114;11.670;2023-02-12T10:34:54;4.53;;;3.90;;
19260;SDS011;9764;48.114;11.670;2023-02-12T10:37:25;6.40;;;3.97;;
19260;SDS011;9764;48.114;11.670;2023-02-12T10:40:00;5.80;;;3.92;;
19260;SDS011;9764;48.114;11.670;2023-02-12T10:42:37;5.55;;;3.75;;
19260;SDS011;9764;48.114;11.670;2023-02-12T10:45:11;8.27;;;4.72;;
19260;SDS011;9764;48.114;11.670;2023-02-12T10:47:41;5.72;;;4.63;;
19260;SDS011;9764;48.114;11.670;2023-02-12T10:50:16;6.38;;;4.28;;
19260;SDS011;9764;48.114;11.670;2023-02-12T10:52:52;6.78;;;4.05;;
19260;SDS011;9764;48.114;11.670;2023-02-12T10:55:24;5.50;;;3.90;;
19260;SDS011;9764;48.114;11.670;2023-02-12T10:57:57;5.88;;;4.03;;
19260;SDS011;9764;48.114;11.670;2023-02-12T11:00:28;6.90;;;4.25;;
19260;SDS011;9764;48.114;11.670;2023-02-12T11:03:00;5.40;;;3.95;;
19260;SDS011;9764;48.114;11.670;2023-02-12T11:05:32;6.60;;;4.38;;
19260;SDS011;9764;48.114;11.670;2023-02-12T11:08:02;4.63;;;4.18;;
19260;SDS011;9764;48.114;11.670;2023-02-12T11:10:31;6.93;;;4.13;;
19260;SDS011;9764;48.114;11.670;2023-02-12T11:13:05;6.38;;;3.95;;
19260;SDS011;9764;48.114;11.670;2023-02-12T11:15:51;6.03;;;4.13;;
19260;SDS011;9764;48.114;11.670;2023-02-12T11:18:21;6.00;;;3.90;;
19260;SDS011;9764;48.114;11.670;2023-02-12T11:20:52;5.38;;;3.80;;
19260;SDS011;9764;48.114;11.670;2023-02-12T11:23:24;6.78;;;3.83;;
19260;SDS011;9764;48.114;11.670;2023-02-12T11:25:56;6.85;;;4.20;;
19260;SDS011;9764;48.114;11.670;2023-02-12T11:28:28;5.57;;;3.97;;
19260;SDS011;9764;48.114;11.670;2023-02-12T11:30:58;5.80;;;3.75;;
19260;SDS011;9764;48.114;11.670;2023-02-12T11:33:30;6.13;;;3.80;;
19260;SDS011;9764;48.114;11.670;2023-02-12T11:36:01;5.82;;;4.30;;
19260;SDS011;9764;48.114;11.670;2023-02-12T11:38:34;5.97;;;3.80;;
19260;SDS011;9764;48.114;11.670;2023-02-12T11:41:07;6.22;;;4.10;;
19260;SDS011;9764;48.114;11.670;2023-02-12T11:43:50;5.88;;;4.18;;
19260;SDS011;9764;48.114;11.670;2023-02-12T11:46:19;4.03;;;3.35;;
19260;SDS011;9764;48.114;11.670;2023-02-12T11:48:49;5.90;;;3.80;;
19260;SDS011;9764;48.114;11.670;2023-02-12T11:51:19;4.88;;;3.90;;
19260;SDS011;9764;48.114;11.670;2023-02-12T11:53:51;6.70;;;4.18;;
19260;SDS011;9764;48.114;11.670;2023-02-12T11:56:21;5.32;;;3.90;;
19260;SDS011;9764;48.114;11.670;2023-02-12T11:58:51;4.28;;;3.40;;
19260;SDS011;9764;48.114;11.670;2023-02-12T12:01:22;5.47;;;3.88;;
19260;SDS011;9764;48.114;11.670;2023-02-12T12:03:57;5.30;;;3.80;;
19260;SDS011;9764;48.114;11.670;2023-02-12T12:06:32;3.55;;;3.22;;
19260;SDS011;9764;48.114;11.670;2023-02-12T12:09:06;4.18;;;3.40;;
19260;SDS011;9764;48.114;11.670;2023-02-12T12:11:42;4.05;;;3.60;;
19260;SDS011;9764;48.114;11.670;2023-02-12T12:14:27;4.22;;;3.65;;
19260;SDS011;9764;48.114;11.670;2023-02-12T12:16:59;4.20;;;3.65;;
19260;SDS011;9764;48.114;11.670;2023-02-12T12:19:51;4.22;;;3.45;;
19260;SDS011;9764;48.114;11.670;2023-02-12T12:22:30;3.55;;;3.10;;
19260;SDS011;9764;48.114;11.670;2023-02-12T12:25:09;4.13;;;3.50;;
19260;SDS011;9764;48.114;11.670;2023-02-12T12:27:53;4.03;;;3.30;;
19260;SDS011;9764;48.114;11.670;2023-02-12T12:30:40;3.67;;;3.25;;
19260;SDS011;9764;48.114;11.670;2023-02-12T12:33:33;4.28;;;3.40;;
19260;SDS011;9764;48.114;11.670;2023-02-12T12:36:18;3.67;;;3.28;;
19260;SDS011;9764;48.114;11.670;2023-02-12T12:39:05;3.88;;;3.47;;
19260;SDS011;9764;48.114;11.670;2023-02-12T12:41:47;4.43;;;3.38;;
19260;SDS011;9764;48.114;11.670;2023-02-12T12:44:43;3.90;;;2.97;;
19260;SDS011;9764;48.114;11.670;2023-02-12T12:47:25;4.10;;;3.42;;
19260;SDS011;9764;48.114;11.670;2023-02-12T12:50:08;4.07;;;3.33;;
19260;SDS011;9764;48.114;11.670;2023-02-12T12:52:59;3.78;;;3.30;;
19260;SDS011;9764;48.114;11.670;2023-02-12T12:55:49;4.40;;;3.13;;
19260;SDS011;9764;48.114;11.670;2023-02-12T12:58:31;4.53;;;2.92;;
19260;SDS011;9764;48.114;11.670;2023-02-12T13:07:33;3.33;;;3.03;;
19260;SDS011;9764;48.114;11.670;2023-02-12T13:10:13;4.53;;;3.25;;
19260;SDS011;9764;48.114;11.670;2023-02-12T13:12:59;3.28;;;2.97;;
19260;SDS011;9764;48.114;11.670;2023-02-12T13:15:36;4.15;;;3.38;;
19260;SDS011;9764;48.114;11.670;2023-02-12T13:18:13;3.90;;;2.60;;
19260;SDS011;9764;48.114;11.670;2023-02-12T13:20:54;3.55;;;2.80;;
19260;SDS011;9764;48.114;11.670;2023-02-12T13:23:30;3.78;;;3.15;;
19260;SDS011;9764;48.114;11.670;2023-02-12T13:26:08;3.47;;;2.78;;
19260;SDS011;9764;48.114;11.670;2023-02-12T13:28:43;3.85;;;2.97;;
19260;SDS011;9764;48.114;11.670;2023-02-12T13:31:17;3.13;;;2.70;;
19260;SDS011;9764;48.114;11.670;2023-02-12T13:34:00;3.10;;;2.80;;
19260;SDS011;9764;48.114;11.670;2023-02-12T13:36:31;3.28;;;2.65;;
19260;SDS011;9764;48.114;11.670;2023-02-12T13:39:06;2.50;;;2.25;;
19260;SDS011;9764;48.114;11.670;2023-02-12T13:41:44;3.28;;;2.78;;
19260;SDS011;9764;48.114;11.670;2023-02-12T13:44:19;3.38;;;3.00;;
19260;SDS011;9764;48.114;11.670;2023-02-12T13:46:58;3.25;;;2.72;;
19260;SDS011;9764;48.114;11.670;2023-02-12T13:49:36;2.80;;;2.50;;
19260;SDS011;9764;48.114;11.670;2023-02-12T13:52:13;3.85;;;2.92;;
19260;SDS011;9764;48.114;11.670;2023-02-12T13:54:53;2.67;;;2.42;;
19260;SDS011;9764;48.114;11.670;2023-02-12T13:57:27;3.42;;;2.83;;
19260;SDS011;9764;48.114;11.670;2023-02-12T13:59:56;3.83;;;2.60;;
19260;SDS011;9764;48.114;11.670;2023-02-12T14:02:27;3.53;;;2.50;;
19260;SDS011;9764;48.114;11.670;2023-02-12T14:05:16;3.13;;;2.70;;
19260;SDS011;9764;48.114;11.670;2023-02-12T14:07:57;3.45;;;2.65;;
19260;SDS011;9764;48.114;11.670;2023-02-12T14:10:31;2.40;;;2.20;;
19260;SDS011;9764;48.114;11.670;2023-02-12T14:13:10;2.20;;;2.00;;
19260;SDS011;9764;48.114;11.670;2023-02-12T14:15:44;2.05;;;1.88;;
19260;SDS011;9764;48.114;11.670;2023-02-12T14:18:21;2.92;;;2.05;;
19260;SDS011;9764;48.114;11.670;2023-02-12T14:27:23;2.25;;;2.00;;
19260;SDS011;9764;48.114;11.670;2023-02-12T14:33:09;2.72;;;1.80;;
19260;SDS011;9764;48.114;11.670;2023-02-12T14:35:46;2.58;;;1.83;;
19260;SDS011;9764;48.114;11.670;2023-02-12T14:41:28;2.30;;;1.92;;
19260;SDS011;9764;48.114;11.670;2023-02-12T14:47:14;2.22;;;2.03;;
19260;SDS011;9764;48.114;11.670;2023-02-12T14:50:04;2.03;;;1.60;;
19260;SDS011;9764;48.114;11.670;2023-02-12T14:52:39;2.78;;;1.83;;
19260;SDS011;9764;48.114;11.670;2023-02-12T14:55:17;2.15;;;1.85;;
19260;SDS011;9764;48.114;11.670;2023-02-12T14:58:02;2.72;;;2.10;;
19260;SDS011;9764;48.114;11.670;2023-02-12T15:00:37;2.10;;;1.83;;
19260;SDS011;9764;48.114;11.670;2023-02-12T15:03:16;1.65;;;1.50;;
19260;SDS011;9764;48.114;11.670;2023-02-12T15:05:55;1.90;;;1.40;;
19260;SDS011;9764;48.114;11.670;2023-02-12T15:08:30;1.90;;;1.52;;
19260;SDS011;9764;48.114;11.670;2023-02-12T15:11:05;1.70;;;1.60;;
19260;SDS011;9764;48.114;11.670;2023-02-12T15:13:48;1.67;;;1.58;;
19260;SDS011;9764;48.114;11.670;2023-02-12T15:16:23;1.50;;;1.40;;
19260;SDS011;9764;48.114;11.670;2023-02-12T15:19:01;1.77;;;1.67;;
19260;SDS011;9764;48.114;11.670;2023-02-12T15:21:38;1.83;;;1.48;;
19260;SDS011;9764;48.114;11.670;2023-02-12T15:24:08;1.35;;;1.20;;
19260;SDS011;9764;48.114;11.670;2023-02-12T15:26:39;1.40;;;1.30;;
19260;SDS011;9764;48.114;11.670;2023-02-12T15:29:18;1.60;;;1.40;;
19260;SDS011;9764;48.114;11.670;2023-02-12T15:31:49;1.90;;;1.40;;
19260;SDS011;9764;48.114;11.670;2023-02-12T15:34:21;3.78;;;1.38;;
19260;SDS011;9764;48.114;11.670;2023-02-12T15:36:51;1.45;;;1.35;;
19260;SDS011;9764;48.114;11.670;2023-02-12T15:39:23;1.55;;;1.45;;
19260;SDS011;9764;48.114;11.670;2023-02-12T15:41:53;1.55;;;1.45;;
19260;SDS011;9764;48.114;11.670;2023-02-12T15:44:23;1.83;;;1.40;;
19260;SDS011;9764;48.114;11.670;2023-02-12T15:46:54;1.38;;;1.27;;
19260;SDS011;9764;48.114;11.670;2023-02-12T15:49:31;1.20;;;1.10;;
19260;SDS011;9764;48.114;11.670;2023-02-12T15:52:02;1.30;;;1.10;;
19260;SDS011;9764;48.114;11.670;2023-02-12T15:54:35;1.60;;;1.20;;
19260;SDS011;9764;48.114;11.670;2023-02-12T15:57:08;1.52;;;1.30;;
19260;SDS011;9764;48.114;11.670;2023-02-12T15:59:39;1.25;;;1.15;;
19260;SDS011;9764;48.114;11.670;2023-02-12T16:02:16;1.20;;;1.10;;